createdAt,value
2017-09-14T00:00:27.773Z,11.05
2017-09-14T00:01:27.794Z,11.16
2017-09-14T00:02:27.780Z,11.12
2017-09-14T00:03:27.418Z,11.16
2017-09-14T00:04:27.436Z,11.16
2017-09-14T00:05:27.402Z,11.1
2017-09-14T00:06:28.062Z,11.2
2017-09-14T00:07:27.385Z,11.13
2017-09-14T00:08:27.719Z,11.13
2017-09-14T00:09:27.364Z,11.15
2017-09-14T00:10:27.356Z,11.18
2017-09-14T00:11:27.398Z,11.24
2017-09-14T00:12:27.672Z,11.13
2017-09-14T00:13:27.658Z,11.24
2017-09-14T00:14:27.998Z,11.26
2017-09-14T00:15:27.643Z,11.31
2017-09-14T00:16:27.326Z,11.31
2017-09-14T00:17:27.304Z,11.28
2017-09-14T00:18:27.283Z,11.3
2017-09-14T00:19:27.603Z,11.34
2017-09-14T00:20:27.607Z,11.38
2017-09-14T00:21:27.254Z,11.41
2017-09-14T00:22:27.577Z,11.28
2017-09-14T00:23:27.583Z,11.3
2017-09-14T00:24:27.559Z,11.41
2017-09-14T00:25:27.547Z,11.34
2017-09-14T00:26:27.221Z,11.34
2017-09-14T00:27:27.542Z,11.41
2017-09-14T00:28:27.545Z,11.41
2017-09-14T00:29:27.187Z,11.3
2017-09-14T00:30:27.505Z,11.31
2017-09-14T00:31:27.178Z,11.34
2017-09-14T00:32:27.166Z,11.33
2017-09-14T00:33:27.503Z,11.39
2017-09-14T00:34:27.143Z,11.42
2017-09-14T00:35:27.134Z,11.38
2017-09-14T00:36:27.473Z,11.33
2017-09-14T00:37:27.455Z,11.28
2017-09-14T00:38:27.442Z,11.39
2017-09-14T00:39:27.441Z,11.34
2017-09-14T00:40:27.087Z,11.3
2017-09-14T00:41:27.438Z,11.49
2017-09-14T00:42:27.072Z,11.39
2017-09-14T00:43:27.413Z,11.42
2017-09-14T00:44:27.383Z,11.48
2017-09-14T00:45:27.373Z,11.48
2017-09-14T00:46:27.711Z,11.49
2017-09-14T00:47:27.034Z,11.41
2017-09-14T00:48:27.382Z,11.43
2017-09-14T00:49:27.008Z,11.39
2017-09-14T00:50:26.997Z,11.46
2017-09-14T00:51:27.649Z,11.43
2017-09-14T00:52:26.987Z,11.43
2017-09-14T00:53:27.301Z,11.41
2017-09-14T00:54:27.294Z,11.46
2017-09-14T00:55:26.954Z,11.38
2017-09-14T00:56:26.980Z,11.38
2017-09-14T00:57:26.938Z,11.31
2017-09-14T00:58:27.259Z,11.28
2017-09-14T00:59:26.936Z,11.28
2017-09-14T01:00:27.575Z,11.34
2017-09-14T01:01:27.239Z,11.33
2017-09-14T01:02:27.263Z,11.33
2017-09-14T01:03:26.897Z,11.3
2017-09-14T01:04:26.876Z,11.31
2017-09-14T01:05:26.868Z,11.27
2017-09-14T01:06:26.883Z,11.3
2017-09-14T01:07:26.849Z,11.3
2017-09-14T01:08:26.881Z,11.28
2017-09-14T01:09:27.161Z,11.33
2017-09-14T01:10:27.166Z,11.31
2017-09-14T01:11:27.143Z,11.34
2017-09-14T01:12:26.850Z,11.31
2017-09-14T01:13:27.127Z,11.26
2017-09-14T01:14:26.804Z,11.34
2017-09-14T01:15:27.129Z,11.28
2017-09-14T01:16:27.449Z,11.26
2017-09-14T01:17:26.915Z,11.26
2017-09-14T01:18:27.754Z,11.33
2017-09-14T01:19:26.975Z,11.28
2017-09-14T01:20:27.436Z,11.23
2017-09-14T01:21:26.725Z,11.28
2017-09-14T01:22:27.524Z,11.31
2017-09-14T01:23:27.365Z,11.33
2017-09-14T01:24:26.991Z,11.27
2017-09-14T01:25:27.338Z,11.26
2017-09-14T01:26:26.753Z,11.28
2017-09-14T01:27:26.931Z,11.26
2017-09-14T01:28:26.664Z,11.28
2017-09-14T01:29:27.224Z,11.24
2017-09-14T01:30:27.016Z,11.33
2017-09-14T01:31:26.798Z,11.24
2017-09-14T01:32:27.641Z,11.26
2017-09-14T01:33:26.773Z,11.34
2017-09-14T01:34:26.640Z,11.27
2017-09-14T01:35:27.235Z,11.21
2017-09-14T01:36:26.957Z,11.35
2017-09-14T01:37:26.967Z,11.31
2017-09-14T01:38:27.253Z,11.35
2017-09-14T01:39:26.691Z,11.2
2017-09-14T01:40:26.793Z,11.33
2017-09-14T01:41:27.570Z,11.33
2017-09-14T01:42:26.820Z,11.28
2017-09-14T01:43:26.923Z,11.24
2017-09-14T01:44:26.709Z,11.26
2017-09-14T01:45:27.429Z,11.26
2017-09-14T01:46:26.836Z,11.27
2017-09-14T01:47:26.839Z,11.26
2017-09-14T01:48:26.730Z,11.31
2017-09-14T01:49:26.800Z,11.35
2017-09-14T01:50:26.729Z,11.38
2017-09-14T01:51:26.711Z,11.35
2017-09-14T01:52:26.710Z,11.31
2017-09-14T01:53:26.465Z,11.28
2017-09-14T01:54:26.962Z,11.34
2017-09-14T01:55:26.424Z,11.31
2017-09-14T01:56:27.114Z,11.3
2017-09-14T01:57:27.359Z,11.33
2017-09-14T01:58:27.100Z,11.31
2017-09-14T01:59:26.467Z,11.31
2017-09-14T02:00:26.901Z,11.34
2017-09-14T02:01:26.732Z,11.31
2017-09-14T02:02:26.709Z,11.38
2017-09-14T02:03:26.357Z,11.33
2017-09-14T02:04:26.679Z,11.35
2017-09-14T02:05:26.341Z,11.3
2017-09-14T02:06:26.660Z,11.35
2017-09-14T02:07:26.979Z,11.48
2017-09-14T02:08:26.314Z,11.45
2017-09-14T02:09:26.633Z,11.42
2017-09-14T02:10:26.295Z,11.39
2017-09-14T02:11:26.616Z,11.42
2017-09-14T02:12:26.277Z,11.42
2017-09-14T02:13:26.269Z,11.46
2017-09-14T02:14:26.587Z,11.59
2017-09-14T02:15:26.252Z,11.45
2017-09-14T02:16:26.248Z,11.45
2017-09-14T02:17:26.237Z,11.56
2017-09-14T02:18:26.882Z,11.48
2017-09-14T02:19:26.230Z,11.49
2017-09-14T02:20:26.208Z,11.41
2017-09-14T02:21:26.545Z,11.43
2017-09-14T02:22:26.523Z,11.45
2017-09-14T02:23:26.524Z,11.45
2017-09-14T02:24:26.175Z,11.39
2017-09-14T02:25:26.510Z,11.46
2017-09-14T02:26:26.522Z,11.45
2017-09-14T02:27:26.146Z,11.38
2017-09-14T02:28:26.803Z,11.41
2017-09-14T02:29:26.158Z,11.38
2017-09-14T02:30:26.449Z,11.42
2017-09-14T02:31:26.449Z,11.43
2017-09-14T02:32:26.436Z,11.39
2017-09-14T02:33:26.426Z,11.42
2017-09-14T02:34:26.086Z,11.41
2017-09-14T02:35:26.433Z,11.41
2017-09-14T02:36:26.415Z,11.43
2017-09-14T02:37:26.059Z,11.38
2017-09-14T02:38:26.054Z,11.48
2017-09-14T02:39:26.373Z,11.43
2017-09-14T02:40:26.363Z,11.43
2017-09-14T02:41:26.354Z,11.42
2017-09-14T02:42:26.361Z,11.39
2017-09-14T02:43:26.036Z,11.41
2017-09-14T02:44:26.329Z,11.38
2017-09-14T02:45:26.329Z,11.43
2017-09-14T02:46:27.614Z,11.31
2017-09-14T02:47:26.300Z,11.43
2017-09-14T02:48:26.312Z,11.41
2017-09-14T02:49:25.964Z,11.45
2017-09-14T02:50:25.945Z,11.46
2017-09-14T02:51:26.268Z,11.45
2017-09-14T02:52:25.945Z,11.46
2017-09-14T02:53:25.921Z,11.49
2017-09-14T02:54:26.573Z,11.43
2017-09-14T02:55:25.902Z,11.41
2017-09-14T02:56:25.908Z,11.45
2017-09-14T02:57:26.217Z,11.39
2017-09-14T02:58:26.533Z,11.45
2017-09-14T02:59:26.198Z,11.43
2017-09-14T03:00:25.883Z,11.42
2017-09-14T03:01:26.508Z,11.49
2017-09-14T03:02:25.842Z,11.43
2017-09-14T03:03:25.847Z,11.43
2017-09-14T03:04:26.498Z,11.49
2017-09-14T03:05:25.834Z,11.49
2017-09-14T03:06:25.806Z,11.41
2017-09-14T03:07:26.128Z,11.48
2017-09-14T03:08:26.119Z,11.51
2017-09-14T03:09:26.108Z,11.48
2017-09-14T03:10:26.103Z,11.39
2017-09-14T03:11:25.773Z,11.46
2017-09-14T03:12:25.800Z,11.46
2017-09-14T03:13:25.762Z,11.43
2017-09-14T03:14:26.068Z,11.46
2017-09-14T03:15:26.074Z,11.42
2017-09-14T03:16:25.721Z,11.51
2017-09-14T03:17:26.374Z,11.38
2017-09-14T03:18:26.044Z,11.48
2017-09-14T03:19:25.697Z,11.45
2017-09-14T03:20:26.016Z,11.45
2017-09-14T03:21:26.360Z,11.39
2017-09-14T03:22:26.011Z,11.42
2017-09-14T03:23:25.989Z,11.42
2017-09-14T03:24:26.021Z,11.51
2017-09-14T03:25:25.972Z,11.56
2017-09-14T03:26:25.636Z,11.39
2017-09-14T03:27:25.955Z,11.48
2017-09-14T03:28:25.628Z,11.46
2017-09-14T03:29:25.942Z,11.41
2017-09-14T03:30:25.928Z,11.42
2017-09-14T03:31:26.247Z,11.42
2017-09-14T03:32:25.911Z,11.43
2017-09-14T03:33:25.578Z,11.38
2017-09-14T03:34:25.566Z,11.39
2017-09-14T03:35:25.892Z,11.45
2017-09-14T03:36:25.983Z,11.39
2017-09-14T03:37:25.905Z,11.43
2017-09-14T03:38:26.190Z,11.51
2017-09-14T03:39:25.521Z,11.51
2017-09-14T03:40:25.844Z,11.45
2017-09-14T03:41:25.862Z,11.48
2017-09-14T03:42:25.509Z,11.56
2017-09-14T03:43:25.486Z,11.48
2017-09-14T03:44:26.134Z,11.52
2017-09-14T03:45:25.474Z,11.56
2017-09-14T03:46:25.463Z,11.42
2017-09-14T03:47:25.785Z,11.41
2017-09-14T03:48:25.466Z,11.56
2017-09-14T03:49:25.764Z,11.43
2017-09-14T03:50:26.091Z,11.45
2017-09-14T03:51:25.420Z,11.52
2017-09-14T03:52:26.569Z,11.53
2017-09-14T03:53:26.066Z,11.49
2017-09-14T03:54:25.393Z,11.56
2017-09-14T03:55:26.050Z,11.52
2017-09-14T03:56:26.046Z,11.39
2017-09-14T03:57:25.385Z,11.49
2017-09-14T03:58:25.359Z,11.46
2017-09-14T03:59:26.009Z,11.38
2017-09-14T04:00:25.997Z,11.48
2017-09-14T04:01:25.658Z,11.49
2017-09-14T04:02:25.329Z,11.45
2017-09-14T04:03:25.646Z,11.39
2017-09-14T04:04:25.326Z,11.48
2017-09-14T04:05:25.305Z,11.42
2017-09-14T04:06:25.342Z,11.39
2017-09-14T04:07:25.276Z,11.48
2017-09-14T04:08:25.621Z,11.39
2017-09-14T04:09:25.589Z,11.45
2017-09-14T04:10:25.253Z,11.35
2017-09-14T04:11:25.245Z,11.46
2017-09-14T04:12:25.245Z,11.39
2017-09-14T04:13:25.235Z,11.31
2017-09-14T04:14:25.404Z,11.31
2017-09-14T04:15:25.211Z,11.31
2017-09-14T04:16:25.539Z,11.34
2017-09-14T04:17:25.197Z,11.26
2017-09-14T04:18:25.539Z,11.3
2017-09-14T04:19:25.506Z,11.16
2017-09-14T04:20:25.508Z,11.1
2017-09-14T04:21:25.509Z,11.15
2017-09-14T04:22:25.479Z,11.1
2017-09-14T04:23:25.472Z,11.1
2017-09-14T04:24:25.462Z,11.12
2017-09-14T04:25:25.455Z,11.16
2017-09-14T04:26:25.117Z,11.13
2017-09-14T04:27:25.453Z,11.12
2017-09-14T04:28:25.099Z,11.1
2017-09-14T04:29:25.089Z,11.1
2017-09-14T04:30:25.754Z,11.1
2017-09-14T04:31:25.073Z,11.12
2017-09-14T04:32:25.393Z,11.12
2017-09-14T04:33:25.054Z,11.09
2017-09-14T04:34:25.046Z,11.13
2017-09-14T04:35:25.037Z,11.06
2017-09-14T04:36:25.357Z,11.1
2017-09-14T04:37:25.352Z,11.15
2017-09-14T04:38:25.341Z,11.13
2017-09-14T04:39:25.334Z,11.08
2017-09-14T04:40:25.324Z,11
2017-09-14T04:41:25.318Z,11.15
2017-09-14T04:42:25.304Z,11.05
2017-09-14T04:43:25.296Z,11
2017-09-14T04:44:25.357Z,10.98
2017-09-14T04:45:24.952Z,11.06
2017-09-14T04:46:24.941Z,11.09
2017-09-14T04:47:25.264Z,11.08
2017-09-14T04:48:24.937Z,11.02
2017-09-14T04:49:25.245Z,11.02
2017-09-14T04:50:25.571Z,10.94
2017-09-14T04:51:25.576Z,11.03
2017-09-14T04:52:25.564Z,10.92
2017-09-14T04:53:24.890Z,11.03
2017-09-14T04:54:25.202Z,10.97
2017-09-14T04:55:25.535Z,10.95
2017-09-14T04:56:24.854Z,11
2017-09-14T04:57:24.845Z,10.97
2017-09-14T04:58:24.834Z,10.9
2017-09-14T04:59:25.508Z,10.98
2017-09-14T05:00:24.820Z,10.95
2017-09-14T05:01:25.491Z,10.92
2017-09-14T05:02:25.128Z,10.97
2017-09-14T05:03:25.129Z,10.91
2017-09-14T05:04:24.801Z,10.94
2017-09-14T05:05:24.793Z,10.88
2017-09-14T05:06:24.766Z,10.91
2017-09-14T05:07:24.785Z,10.92
2017-09-14T05:08:24.758Z,10.84
2017-09-14T05:09:25.064Z,10.91
2017-09-14T05:10:25.387Z,10.88
2017-09-14T05:11:25.075Z,10.9
2017-09-14T05:12:25.043Z,10.94
2017-09-14T05:13:24.704Z,10.88
2017-09-14T05:14:24.697Z,10.79
2017-09-14T05:15:25.013Z,10.83
2017-09-14T05:16:24.705Z,10.79
2017-09-14T05:17:24.997Z,10.8
2017-09-14T05:18:25.014Z,10.79
2017-09-14T05:19:24.978Z,10.77
2017-09-14T05:20:24.969Z,10.76
2017-09-14T05:21:24.971Z,10.76
2017-09-14T05:22:24.638Z,10.69
2017-09-14T05:23:25.270Z,10.66
2017-09-14T05:24:24.958Z,10.8
2017-09-14T05:25:25.257Z,10.69
2017-09-14T05:26:24.921Z,10.65
2017-09-14T05:27:24.578Z,10.77
2017-09-14T05:28:24.897Z,10.76
2017-09-14T05:29:24.886Z,10.75
2017-09-14T05:30:24.877Z,10.69
2017-09-14T05:31:24.873Z,10.75
2017-09-14T05:32:24.534Z,10.77
2017-09-14T05:33:24.851Z,10.69
2017-09-14T05:34:24.515Z,10.8
2017-09-14T05:35:24.528Z,10.75
2017-09-14T05:36:25.166Z,10.69
2017-09-14T05:37:24.489Z,10.7
2017-09-14T05:38:24.810Z,10.75
2017-09-14T05:39:24.471Z,10.67
2017-09-14T05:40:24.462Z,10.69
2017-09-14T05:41:24.455Z,10.66
2017-09-14T05:42:24.771Z,10.77
2017-09-14T05:43:25.096Z,10.75
2017-09-14T05:44:24.758Z,10.75
2017-09-14T05:45:25.076Z,10.7
2017-09-14T05:46:24.734Z,10.7
2017-09-14T05:47:24.729Z,10.73
2017-09-14T05:48:24.722Z,10.67
2017-09-14T05:49:24.380Z,10.75
2017-09-14T05:50:24.375Z,10.66
2017-09-14T05:51:24.695Z,10.79
2017-09-14T05:52:24.708Z,10.8
2017-09-14T05:53:24.349Z,10.73
2017-09-14T05:54:24.666Z,10.75
2017-09-14T05:55:24.328Z,10.84
2017-09-14T05:56:24.332Z,10.67
2017-09-14T05:57:24.640Z,10.8
2017-09-14T05:58:24.635Z,10.76
2017-09-14T05:59:24.952Z,10.79
2017-09-14T06:00:24.627Z,10.79
2017-09-14T06:01:24.275Z,10.88
2017-09-14T06:02:24.266Z,10.84
2017-09-14T06:03:24.272Z,10.79
2017-09-14T06:04:24.259Z,10.84
2017-09-14T06:05:24.571Z,10.77
2017-09-14T06:06:24.584Z,10.85
2017-09-14T06:07:24.236Z,10.79
2017-09-14T06:08:24.870Z,10.88
2017-09-14T06:09:24.538Z,10.87
2017-09-14T06:10:24.212Z,10.84
2017-09-14T06:11:24.190Z,10.79
2017-09-14T06:12:24.505Z,10.88
2017-09-14T06:13:24.844Z,10.83
2017-09-14T06:14:24.489Z,10.91
2017-09-14T06:15:24.501Z,10.8
2017-09-14T06:16:24.141Z,10.77
2017-09-14T06:17:24.469Z,10.83
2017-09-14T06:18:24.127Z,10.87
2017-09-14T06:19:24.442Z,10.9
2017-09-14T06:20:24.440Z,10.91
2017-09-14T06:21:24.427Z,10.9
2017-09-14T06:22:24.427Z,10.83
2017-09-14T06:23:24.099Z,10.87
2017-09-14T06:24:24.408Z,10.87
2017-09-14T06:25:24.393Z,10.94
2017-09-14T06:26:24.059Z,10.87
2017-09-14T06:27:24.376Z,10.91
2017-09-14T06:28:24.049Z,10.88
2017-09-14T06:29:24.357Z,10.95
2017-09-14T06:30:24.025Z,10.94
2017-09-14T06:31:24.340Z,10.87
2017-09-14T06:32:24.341Z,10.9
2017-09-14T06:33:24.012Z,10.92
2017-09-14T06:34:24.332Z,10.98
2017-09-14T06:35:23.981Z,11.06
2017-09-14T06:36:24.295Z,11.03
2017-09-14T06:37:24.297Z,11.02
2017-09-14T06:38:23.961Z,11.03
2017-09-14T06:39:24.290Z,11.02
2017-09-14T06:40:23.934Z,11.05
2017-09-14T06:41:23.949Z,11.05
2017-09-14T06:42:23.917Z,11.05
2017-09-14T06:43:24.583Z,11.03
2017-09-14T06:44:24.233Z,11.05
2017-09-14T06:45:24.219Z,11
2017-09-14T06:46:24.541Z,11
2017-09-14T06:47:24.222Z,11.08
2017-09-14T06:48:24.195Z,11.03
2017-09-14T06:49:24.185Z,10.97
2017-09-14T06:50:23.850Z,10.94
2017-09-14T06:51:24.167Z,10.97
2017-09-14T06:52:23.832Z,11.02
2017-09-14T06:53:24.186Z,11.02
2017-09-14T06:54:24.157Z,11.02
2017-09-14T06:55:24.132Z,11
2017-09-14T06:56:23.796Z,11.03
2017-09-14T06:57:23.787Z,11.06
2017-09-14T06:58:24.125Z,11.05
2017-09-14T06:59:24.131Z,11.08
2017-09-14T07:00:23.763Z,11.05
2017-09-14T07:01:24.101Z,11.03
2017-09-14T07:02:24.073Z,11.06
2017-09-14T07:03:24.396Z,11.02
2017-09-14T07:04:23.727Z,11.03
2017-09-14T07:05:23.718Z,11.02
2017-09-14T07:06:24.052Z,11.03
2017-09-14T07:07:23.704Z,11.13
2017-09-14T07:08:23.708Z,11.12
2017-09-14T07:09:24.360Z,11.12
2017-09-14T07:10:24.005Z,11.2
2017-09-14T07:11:23.734Z,11.1
2017-09-14T07:12:23.660Z,11.12
2017-09-14T07:13:24.002Z,11.12
2017-09-14T07:14:23.998Z,11.15
2017-09-14T07:15:23.970Z,11.1
2017-09-14T07:16:23.959Z,11.16
2017-09-14T07:17:23.630Z,11.2
2017-09-14T07:18:23.608Z,11.26
2017-09-14T07:19:23.599Z,11.24
2017-09-14T07:20:23.631Z,11.26
2017-09-14T07:21:23.908Z,11.21
2017-09-14T07:22:23.576Z,11.2
2017-09-14T07:23:23.914Z,11.18
2017-09-14T07:24:23.882Z,11.1
2017-09-14T07:25:23.876Z,11.23
2017-09-14T07:26:23.867Z,11.3
2017-09-14T07:27:23.531Z,11.26
2017-09-14T07:28:23.538Z,11.3
2017-09-14T07:29:23.856Z,11.27
2017-09-14T07:30:23.833Z,11.27
2017-09-14T07:31:23.495Z,11.27
2017-09-14T07:32:23.820Z,11.34
2017-09-14T07:33:23.478Z,11.33
2017-09-14T07:34:23.472Z,11.34
2017-09-14T07:35:23.458Z,11.38
2017-09-14T07:36:23.458Z,11.43
2017-09-14T07:37:23.447Z,11.41
2017-09-14T07:38:23.765Z,11.51
2017-09-14T07:39:23.560Z,11.56
2017-09-14T07:40:23.934Z,11.56
2017-09-14T07:41:23.518Z,11.63
2017-09-14T07:42:24.258Z,11.66
2017-09-14T07:43:23.749Z,11.6
2017-09-14T07:44:24.059Z,11.68
2017-09-14T07:45:23.379Z,11.68
2017-09-14T07:46:23.369Z,11.61
2017-09-14T07:47:23.368Z,11.71
2017-09-14T07:48:23.712Z,11.73
2017-09-14T07:49:23.349Z,11.75
2017-09-14T07:50:23.737Z,11.79
2017-09-14T07:51:23.692Z,11.86
2017-09-14T07:52:23.649Z,11.91
2017-09-14T07:53:23.642Z,11.88
2017-09-14T07:54:23.636Z,11.95
2017-09-14T07:55:23.649Z,12.04
2017-09-14T07:56:23.287Z,12.04
2017-09-14T07:57:23.284Z,12.13
2017-09-14T07:58:23.272Z,12.16
2017-09-14T07:59:23.267Z,12.19
2017-09-14T08:00:23.628Z,12.19
2017-09-14T08:01:23.578Z,12.23
2017-09-14T08:02:23.569Z,12.33
2017-09-14T08:03:23.235Z,12.26
2017-09-14T08:04:23.560Z,12.4
2017-09-14T08:05:23.576Z,12.44
2017-09-14T08:06:23.234Z,12.43
2017-09-14T08:07:23.533Z,12.45
2017-09-14T08:08:23.568Z,12.43
2017-09-14T08:09:23.189Z,12.28
2017-09-14T08:10:23.512Z,12.37
2017-09-14T08:11:23.174Z,12.31
2017-09-14T08:12:23.842Z,12.31
2017-09-14T08:13:23.159Z,12.34
2017-09-14T08:14:23.485Z,12.33
2017-09-14T08:15:23.143Z,12.29
2017-09-14T08:16:23.462Z,12.33
2017-09-14T08:17:23.459Z,12.34
2017-09-14T08:18:23.448Z,12.34
2017-09-14T08:19:23.464Z,12.29
2017-09-14T08:20:23.110Z,12.34
2017-09-14T08:21:23.431Z,12.29
2017-09-14T08:22:23.424Z,12.28
2017-09-14T08:23:23.085Z,12.43
2017-09-14T08:24:23.419Z,12.25
2017-09-14T08:25:23.072Z,12.43
2017-09-14T08:26:23.390Z,12.44
2017-09-14T08:27:23.403Z,12.43
2017-09-14T08:28:23.382Z,12.56
2017-09-14T08:29:23.040Z,12.52
2017-09-14T08:30:23.379Z,12.38
2017-09-14T08:31:23.027Z,12.41
2017-09-14T08:32:23.674Z,12.33
2017-09-14T08:33:23.012Z,12.29
2017-09-14T08:34:23.002Z,12.28
2017-09-14T08:35:23.688Z,12.34
2017-09-14T08:36:22.991Z,12.22
2017-09-14T08:37:22.981Z,12.16
2017-09-14T08:38:23.675Z,12.13
2017-09-14T08:39:22.966Z,12.13
2017-09-14T08:40:22.976Z,12.08
2017-09-14T08:41:23.298Z,12.05
2017-09-14T08:42:22.972Z,12.05
2017-09-14T08:43:23.600Z,11.97
2017-09-14T08:44:22.927Z,12.05
2017-09-14T08:45:23.252Z,12.07
2017-09-14T08:46:22.913Z,12.08
2017-09-14T08:47:23.270Z,12.22
2017-09-14T08:48:22.919Z,12.16
2017-09-14T08:49:22.893Z,12.18
2017-09-14T08:50:23.543Z,12.28
2017-09-14T08:51:22.878Z,12.2
2017-09-14T08:52:23.205Z,12.2
2017-09-14T08:53:23.190Z,12.28
2017-09-14T08:54:22.854Z,12.29
2017-09-14T08:55:23.190Z,12.38
2017-09-14T08:56:23.166Z,12.38
2017-09-14T08:57:23.176Z,12.31
2017-09-14T08:58:22.826Z,12.28
2017-09-14T08:59:22.816Z,12.34
2017-09-14T09:00:23.164Z,12.36
2017-09-14T09:01:23.136Z,12.36
2017-09-14T09:02:23.127Z,12.31
2017-09-14T09:03:23.445Z,12.29
2017-09-14T09:04:23.116Z,12.25
2017-09-14T09:05:22.769Z,12.31
2017-09-14T09:06:23.125Z,12.26
2017-09-14T09:07:23.082Z,12.23
2017-09-14T09:08:22.750Z,12.29
2017-09-14T09:09:23.075Z,12.22
2017-09-14T09:10:22.748Z,12.22
2017-09-14T09:11:23.378Z,12.22
2017-09-14T09:12:22.742Z,12.07
2017-09-14T09:13:23.038Z,12.13
2017-09-14T09:14:23.030Z,12.16
2017-09-14T09:15:22.694Z,12.16
2017-09-14T09:16:22.688Z,12.07
2017-09-14T09:17:28.789Z,12.19
2017-09-14T09:18:23.002Z,12.15
2017-09-14T09:19:22.663Z,12.23
2017-09-14T09:20:22.657Z,12.15
2017-09-14T09:21:23.008Z,12.18
2017-09-14T09:22:22.968Z,12.16
2017-09-14T09:23:22.965Z,12.07
2017-09-14T09:24:22.957Z,12.03
2017-09-14T09:25:23.287Z,11.94
2017-09-14T09:26:22.951Z,11.91
2017-09-14T09:27:22.602Z,11.91
2017-09-14T09:28:22.925Z,11.78
2017-09-14T09:29:22.611Z,11.76
2017-09-14T09:30:22.599Z,11.91
2017-09-14T09:31:22.905Z,11.95
2017-09-14T09:32:22.565Z,12
2017-09-14T09:33:22.883Z,12.07
2017-09-14T09:34:22.550Z,12.05
2017-09-14T09:35:22.551Z,12.04
2017-09-14T09:36:22.534Z,12.01
2017-09-14T09:37:22.529Z,12.04
2017-09-14T09:38:22.519Z,11.91
2017-09-14T09:39:22.841Z,12.03
2017-09-14T09:40:22.834Z,12.08
2017-09-14T09:41:22.498Z,12.03
2017-09-14T09:42:23.158Z,12
2017-09-14T09:43:22.482Z,12.03
2017-09-14T09:44:22.847Z,11.98
2017-09-14T09:45:23.123Z,12.04
2017-09-14T09:46:23.117Z,11.95
2017-09-14T09:47:22.455Z,11.75
2017-09-14T09:48:22.444Z,11.78
2017-09-14T09:49:22.456Z,11.75
2017-09-14T09:50:22.431Z,11.67
2017-09-14T09:51:22.776Z,11.68
2017-09-14T09:52:22.747Z,11.59
2017-09-14T09:53:22.734Z,11.56
2017-09-14T09:54:22.726Z,11.41
2017-09-14T09:55:23.048Z,11.39
2017-09-14T09:56:22.729Z,11.31
2017-09-14T09:57:23.138Z,11.3
2017-09-14T09:58:22.363Z,11.1
2017-09-14T09:59:22.356Z,11.23
2017-09-14T10:00:22.371Z,11.12
2017-09-14T10:01:22.666Z,11.12
2017-09-14T10:02:22.366Z,11.05
2017-09-14T10:03:22.325Z,11.05
2017-09-14T10:04:22.643Z,11
2017-09-14T10:05:22.326Z,11
2017-09-14T10:06:22.645Z,11.02
2017-09-14T10:07:22.616Z,11.06
2017-09-14T10:08:22.611Z,11.02
2017-09-14T10:09:22.936Z,11.12
2017-09-14T10:10:22.633Z,11.13
2017-09-14T10:11:22.915Z,11.23
2017-09-14T10:12:22.288Z,11.21
2017-09-14T10:13:22.240Z,11.28
2017-09-14T10:14:22.922Z,11.3
2017-09-14T10:15:22.224Z,11.38
2017-09-14T10:16:22.546Z,11.43
2017-09-14T10:17:22.216Z,11.41
2017-09-14T10:18:22.200Z,11.41
2017-09-14T10:19:22.188Z,11.51
2017-09-14T10:20:22.188Z,11.42
2017-09-14T10:21:22.513Z,11.31
2017-09-14T10:22:22.163Z,11.31
2017-09-14T10:23:22.808Z,11.3
2017-09-14T10:24:22.486Z,11.26
2017-09-14T10:25:22.793Z,11.33
2017-09-14T10:26:22.482Z,11.31
2017-09-14T10:27:22.447Z,11.27
2017-09-14T10:28:22.453Z,11.33
2017-09-14T10:29:22.124Z,11.42
2017-09-14T10:30:22.115Z,11.48
2017-09-14T10:31:22.105Z,11.59
2017-09-14T10:32:22.406Z,11.61
2017-09-14T10:33:22.072Z,11.64
2017-09-14T10:34:22.062Z,11.67
2017-09-14T10:35:22.054Z,11.68
2017-09-14T10:36:22.704Z,11.78
2017-09-14T10:37:22.038Z,11.76
2017-09-14T10:38:22.046Z,11.61
2017-09-14T10:39:22.024Z,11.67
2017-09-14T10:40:22.341Z,11.64
2017-09-14T10:41:22.669Z,11.67
2017-09-14T10:42:22.666Z,11.63
2017-09-14T10:43:22.339Z,11.57
2017-09-14T10:44:21.989Z,11.57
2017-09-14T10:45:21.988Z,11.52
2017-09-14T10:46:21.963Z,11.45
2017-09-14T10:47:22.306Z,11.45
2017-09-14T10:48:22.284Z,11.45
2017-09-14T10:49:21.944Z,11.45
2017-09-14T10:50:21.975Z,11.46
2017-09-14T10:51:22.083Z,11.46
2017-09-14T10:52:22.202Z,11.59
2017-09-14T10:53:22.216Z,11.46
2017-09-14T10:54:22.586Z,11.39
2017-09-14T10:55:21.940Z,11.42
2017-09-14T10:56:22.429Z,11.46
2017-09-14T10:57:21.993Z,11.48
2017-09-14T10:58:22.075Z,11.46
2017-09-14T10:59:22.140Z,11.46
2017-09-14T11:00:22.021Z,11.59
2017-09-14T11:01:22.269Z,11.48
2017-09-14T11:02:22.550Z,11.48
2017-09-14T11:03:22.065Z,11.41
2017-09-14T11:04:22.312Z,11.28
2017-09-14T11:05:22.207Z,11.24
2017-09-14T11:06:22.403Z,11.26
2017-09-14T11:07:22.153Z,11.28
2017-09-14T11:08:21.783Z,11.31
2017-09-14T11:09:22.121Z,11.3
2017-09-14T11:10:22.107Z,11.24
2017-09-14T11:11:21.760Z,11.13
2017-09-14T11:12:22.094Z,11.09
2017-09-14T11:13:22.068Z,11.08
2017-09-14T11:14:21.754Z,11.08
2017-09-14T11:15:22.051Z,10.92
2017-09-14T11:16:21.731Z,10.9
2017-09-14T11:17:22.035Z,10.83
2017-09-14T11:18:22.050Z,10.91
2017-09-14T11:19:22.350Z,10.8
2017-09-14T11:20:21.683Z,10.69
2017-09-14T11:21:21.693Z,10.69
2017-09-14T11:22:21.697Z,10.55
2017-09-14T11:23:22.332Z,10.44
2017-09-14T11:24:21.996Z,10.29
2017-09-14T11:25:21.645Z,10.28
2017-09-14T11:26:22.296Z,10.18
2017-09-14T11:27:21.947Z,10.17
2017-09-14T11:28:21.952Z,10.08
2017-09-14T11:29:21.601Z,10.17
2017-09-14T11:30:21.592Z,10.08
2017-09-14T11:31:21.937Z,10.18
2017-09-14T11:32:21.906Z,10.14
2017-09-14T11:33:22.237Z,10.17
2017-09-14T11:34:21.887Z,10.13
2017-09-14T11:35:21.548Z,10.17
2017-09-14T11:36:21.539Z,10.17
2017-09-14T11:37:21.855Z,10.21
2017-09-14T11:38:21.523Z,10.17
2017-09-14T11:39:21.849Z,10.25
2017-09-14T11:40:21.503Z,10.2
2017-09-14T11:41:21.826Z,10.25
2017-09-14T11:42:22.140Z,10.29
2017-09-14T11:43:22.135Z,10.32
2017-09-14T11:44:21.790Z,10.14
2017-09-14T11:45:21.454Z,10.28
2017-09-14T11:46:22.100Z,10.29
2017-09-14T11:47:21.435Z,10.21
2017-09-14T11:48:21.448Z,10.33
2017-09-14T11:49:21.744Z,10.32
2017-09-14T11:50:21.421Z,10.28
2017-09-14T11:51:22.079Z,10.31
2017-09-14T11:52:21.388Z,10.32
2017-09-14T11:53:22.036Z,10.38
2017-09-14T11:54:21.702Z,10.35
2017-09-14T11:55:21.394Z,10.42
2017-09-14T11:56:21.679Z,10.46
2017-09-14T11:57:21.689Z,10.52
2017-09-14T11:58:21.334Z,10.51
2017-09-14T11:59:21.650Z,10.59
2017-09-14T12:00:21.643Z,10.61
2017-09-14T12:01:21.306Z,10.57
2017-09-14T12:02:21.955Z,10.57
2017-09-14T12:03:21.290Z,10.54
2017-09-14T12:04:21.604Z,10.61
2017-09-14T12:05:21.597Z,10.58
2017-09-14T12:06:21.588Z,10.55
2017-09-14T12:07:21.254Z,10.57
2017-09-14T12:08:21.240Z,10.49
2017-09-14T12:09:21.232Z,10.46
2017-09-14T12:10:21.900Z,10.46
2017-09-14T12:11:21.229Z,10.47
2017-09-14T12:12:21.203Z,10.61
2017-09-14T12:13:21.519Z,10.55
2017-09-14T12:14:21.202Z,10.61
2017-09-14T12:15:21.177Z,10.58
2017-09-14T12:16:21.165Z,10.59
2017-09-14T12:17:21.164Z,10.67
2017-09-14T12:18:21.481Z,10.72
2017-09-14T12:19:21.466Z,10.92
2017-09-14T12:20:21.131Z,10.97
2017-09-14T12:21:21.134Z,11.1
2017-09-14T12:22:21.112Z,11.16
2017-09-14T12:23:21.453Z,11.09
2017-09-14T12:24:21.449Z,11.08
2017-09-14T12:25:21.449Z,10.98
2017-09-14T12:26:21.429Z,11
2017-09-14T12:27:21.397Z,10.9
2017-09-14T12:28:21.385Z,10.85
2017-09-14T12:29:21.378Z,10.91
2017-09-14T12:30:21.042Z,10.84
2017-09-14T12:31:21.032Z,10.92
2017-09-14T12:32:21.365Z,10.87
2017-09-14T12:33:21.339Z,10.83
2017-09-14T12:34:21.004Z,10.79
2017-09-14T12:35:21.336Z,10.69
2017-09-14T12:36:20.985Z,10.63
2017-09-14T12:37:21.324Z,10.61
2017-09-14T12:38:21.299Z,10.52
2017-09-14T12:39:21.287Z,10.51
2017-09-14T12:40:21.279Z,10.49
2017-09-14T12:41:21.284Z,10.61
2017-09-14T12:42:20.946Z,10.84
2017-09-14T12:43:21.260Z,11.06
2017-09-14T12:44:21.246Z,11.16
2017-09-14T12:45:20.908Z,11.13
2017-09-14T12:46:21.230Z,11.12
2017-09-14T12:47:21.218Z,11.09
2017-09-14T12:48:21.212Z,11.13
2017-09-14T12:49:21.198Z,11.15
2017-09-14T12:50:20.863Z,11.16
2017-09-14T12:51:21.181Z,11.09
2017-09-14T12:52:21.172Z,10.92
2017-09-14T12:53:21.038Z,10.92
2017-09-14T12:54:21.156Z,10.92
2017-09-14T12:55:20.818Z,10.92